sensor_id;sensor_type;location;lat;lon;timestamp;pressure;altitude;pressure_sealevel;temperature;humidity
76378;BME280;65200;49.500;8.654;2023-04-25T00:00:43;99910.31;;;8.01;85.09
76378;BME280;65200;49.500;8.654;2023-04-25T00:03:09;99915.09;;;8.06;87.77
76378;BME280;65200;49.500;8.654;2023-04-25T00:05:35;99914.16;;;7.99;86.90
76378;BME280;65200;49.500;8.654;2023-04-25T00:08:04;99914.72;;;7.94;86.52
76378;BME280;65200;49.500;8.654;2023-04-25T00:10:31;99907.00;;;7.99;86.61
76378;BME280;65200;49.500;8.654;2023-04-25T00:12:57;99906.53;;;7.96;87.21
76378;BME280;65200;49.500;8.654;2023-04-25T00:15:23;99906.44;;;8.04;88.40
76378;BME280;65200;49.500;8.654;2023-04-25T00:17:50;99908.19;;;7.97;87.13
76378;BME280;65200;49.500;8.654;2023-04-25T00:20:18;99909.94;;;8.04;86.56
76378;BME280;65200;49.500;8.654;2023-04-25T00:22:44;99908.13;;;8.05;88.86
76378;BME280;65200;49.500;8.654;2023-04-25T00:25:12;99909.84;;;7.98;91.34
76378;BME280;65200;49.500;8.654;2023-04-25T00:27:39;99909.22;;;7.96;90.72
76378;BME280;65200;49.500;8.654;2023-04-25T00:30:07;99904.72;;;7.96;90.84
76378;BME280;65200;49.500;8.654;2023-04-25T00:32:34;99899.84;;;8.00;91.39
76378;BME280;65200;49.500;8.654;2023-04-25T00:35:01;99910.84;;;7.97;90.49
76378;BME280;65200;49.500;8.654;2023-04-25T00:37:28;99898.72;;;7.94;91.52
76378;BME280;65200;49.500;8.654;2023-04-25T00:39:55;99904.72;;;7.96;91.50
76378;BME280;65200;49.500;8.654;2023-04-25T00:42:22;99903.03;;;7.95;91.07
76378;BME280;65200;49.500;8.654;2023-04-25T00:44:49;99901.38;;;7.94;91.00
76378;BME280;65200;49.500;8.654;2023-04-25T00:47:16;99893.28;;;8.02;92.53
76378;BME280;65200;49.500;8.654;2023-04-25T00:49:42;99901.66;;;7.99;92.05
76378;BME280;65200;49.500;8.654;2023-04-25T00:52:09;99890.81;;;8.01;92.91
76378;BME280;65200;49.500;8.654;2023-04-25T00:54:36;99894.84;;;7.97;92.17
76378;BME280;65200;49.500;8.654;2023-04-25T00:57:02;99890.53;;;7.96;92.26
76378;BME280;65200;49.500;8.654;2023-04-25T00:59:30;99884.34;;;7.95;91.94
76378;BME280;65200;49.500;8.654;2023-04-25T01:01:57;99883.44;;;8.03;92.58
76378;BME280;65200;49.500;8.654;2023-04-25T01:04:26;99881.97;;;8.00;92.31
76378;BME280;65200;49.500;8.654;2023-04-25T01:06:53;99884.25;;;8.03;93.20
76378;BME280;65200;49.500;8.654;2023-04-25T01:09:20;99877.75;;;8.06;93.07
76378;BME280;65200;49.500;8.654;2023-04-25T01:11:48;99878.66;;;8.13;91.49
76378;BME280;65200;49.500;8.654;2023-04-25T01:14:15;99867.78;;;8.14;93.20
76378;BME280;65200;49.500;8.654;2023-04-25T01:16:43;99878.75;;;8.19;92.49
76378;BME280;65200;49.500;8.654;2023-04-25T01:19:10;99875.63;;;8.16;91.89
76378;BME280;65200;49.500;8.654;2023-04-25T01:21:40;99872.03;;;8.09;92.41
76378;BME280;65200;49.500;8.654;2023-04-25T01:24:07;99871.47;;;7.99;92.42
76378;BME280;65200;49.500;8.654;2023-04-25T01:26:34;99865.16;;;7.85;92.71
76378;BME280;65200;49.500;8.654;2023-04-25T01:29:02;99864.78;;;7.88;86.91
76378;BME280;65200;49.500;8.654;2023-04-25T01:31:30;99864.41;;;7.91;94.16
76378;BME280;65200;49.500;8.654;2023-04-25T01:33:57;99873.06;;;7.93;94.94
76378;BME280;65200;49.500;8.654;2023-04-25T01:36:23;99863.56;;;7.91;94.40
76378;BME280;65200;49.500;8.654;2023-04-25T01:38:51;99867.28;;;7.90;95.74
76378;BME280;65200;49.500;8.654;2023-04-25T01:41:18;99869.84;;;7.98;94.85
76378;BME280;65200;49.500;8.654;2023-04-25T01:43:45;99867.34;;;7.96;94.95
76378;BME280;65200;49.500;8.654;2023-04-25T01:46:12;99871.66;;;7.97;95.97
76378;BME280;65200;49.500;8.654;2023-04-25T01:48:38;99870.28;;;8.01;96.48
76378;BME280;65200;49.500;8.654;2023-04-25T01:51:04;99866.22;;;8.05;96.70
76378;BME280;65200;49.500;8.654;2023-04-25T01:53:31;99868.31;;;8.10;95.92
76378;BME280;65200;49.500;8.654;2023-04-25T01:55:59;99868.31;;;8.10;95.08
76378;BME280;65200;49.500;8.654;2023-04-25T01:58:25;99866.91;;;7.93;96.95
76378;BME280;65200;49.500;8.654;2023-04-25T02:00:52;99863.81;;;8.10;96.80
76378;BME280;65200;49.500;8.654;2023-04-25T02:03:18;99864.41;;;8.06;96.27
76378;BME280;65200;49.500;8.654;2023-04-25T02:05:45;99872.31;;;7.99;97.26
76378;BME280;65200;49.500;8.654;2023-04-25T02:08:11;99874.41;;;8.04;98.37
76378;BME280;65200;49.500;8.654;2023-04-25T02:10:37;99877.81;;;8.12;97.81
76378;BME280;65200;49.500;8.654;2023-04-25T02:13:05;99878.66;;;8.13;97.17
76378;BME280;65200;49.500;8.654;2023-04-25T02:15:31;99876.34;;;7.95;95.26
76378;BME280;65200;49.500;8.654;2023-04-25T02:17:58;99879.66;;;7.97;96.79
76378;BME280;65200;49.500;8.654;2023-04-25T02:20:25;99877.84;;;7.83;95.23
76378;BME280;65200;49.500;8.654;2023-04-25T02:22:54;99884.91;;;7.91;97.39
76378;BME280;65200;49.500;8.654;2023-04-25T02:25:20;99878.13;;;7.74;95.91
76378;BME280;65200;49.500;8.654;2023-04-25T02:27:47;99878.03;;;7.67;97.82
76378;BME280;65200;49.500;8.654;2023-04-25T02:30:15;99870.41;;;7.64;98.60
76378;BME280;65200;49.500;8.654;2023-04-25T02:32:42;99870.94;;;7.74;98.94
76378;BME280;65200;49.500;8.654;2023-04-25T02:35:09;99872.41;;;7.91;98.26
76378;BME280;65200;49.500;8.654;2023-04-25T02:37:36;99870.84;;;7.82;97.85
76378;BME280;65200;49.500;8.654;2023-04-25T02:40:04;99870.56;;;7.77;99.17
76378;BME280;65200;49.500;8.654;2023-04-25T02:42:30;99864.16;;;7.72;98.26
76378;BME280;65200;49.500;8.654;2023-04-25T02:44:57;99860.81;;;7.70;99.07
76378;BME280;65200;49.500;8.654;2023-04-25T02:47:25;99862.22;;;7.80;99.94
76378;BME280;65200;49.500;8.654;2023-04-25T02:49:51;99861.84;;;7.83;98.78
76378;BME280;65200;49.500;8.654;2023-04-25T02:52:18;99861.56;;;7.78;98.64
76378;BME280;65200;49.500;8.654;2023-04-25T02:54:44;99852.81;;;7.84;99.01
76378;BME280;65200;49.500;8.654;2023-04-25T02:57:10;99861.19;;;7.81;98.80
76378;BME280;65200;49.500;8.654;2023-04-25T02:59:38;99864.88;;;7.80;99.88
76378;BME280;65200;49.500;8.654;2023-04-25T03:02:04;99867.91;;;7.77;100.00
76378;BME280;65200;49.500;8.654;2023-04-25T03:04:32;99863.88;;;7.81;100.00
76378;BME280;65200;49.500;8.654;2023-04-25T03:06:59;99859.00;;;7.85;100.00
76378;BME280;65200;49.500;8.654;2023-04-25T03:09:26;99863.50;;;7.84;100.00
76378;BME280;65200;49.500;8.654;2023-04-25T03:11:52;99854.31;;;7.87;99.87
76378;BME280;65200;49.500;8.654;2023-04-25T03:14:19;99854.03;;;7.82;99.60
76378;BME280;65200;49.500;8.654;2023-04-25T03:16:45;99850.06;;;7.78;99.68
76378;BME280;65200;49.500;8.654;2023-04-25T03:19:11;99847.13;;;7.73;99.61
76378;BME280;65200;49.500;8.654;2023-04-25T03:21:43;99848.97;;;7.72;100.00
76378;BME280;65200;49.500;8.654;2023-04-25T03:24:10;99849.97;;;7.71;100.00
76378;BME280;65200;49.500;8.654;2023-04-25T03:26:37;99848.31;;;7.70;99.96
76378;BME280;65200;49.500;8.654;2023-04-25T03:29:03;99847.31;;;7.71;100.00
76378;BME280;65200;49.500;8.654;2023-04-25T03:31:30;99847.13;;;7.73;100.00
76378;BME280;65200;49.500;8.654;2023-04-25T03:33:56;99847.41;;;7.63;100.00
76378;BME280;65200;49.500;8.654;2023-04-25T03:36:23;99853.47;;;7.72;100.00
76378;BME280;65200;49.500;8.654;2023-04-25T03:38:50;99852.91;;;7.62;100.00
76378;BME280;65200;49.500;8.654;2023-04-25T03:41:17;99854.56;;;7.63;100.00
76378;BME280;65200;49.500;8.654;2023-04-25T03:43:43;99860.91;;;7.76;100.00
76378;BME280;65200;49.500;8.654;2023-04-25T03:46:10;99860.91;;;7.76;100.00
76378;BME280;65200;49.500;8.654;2023-04-25T03:48:36;99859.38;;;7.82;100.00
76378;BME280;65200;49.500;8.654;2023-04-25T03:51:03;99860.16;;;7.82;100.00
76378;BME280;65200;49.500;8.654;2023-04-25T03:53:29;99858.91;;;7.78;100.00
76378;BME280;65200;49.500;8.654;2023-04-25T03:55:57;99855.13;;;7.73;99.96
76378;BME280;65200;49.500;8.654;2023-04-25T03:58:24;99859.19;;;7.69;100.00
76378;BME280;65200;49.500;8.654;2023-04-25T04:00:50;99858.34;;;7.68;100.00
76378;BME280;65200;49.500;8.654;2023-04-25T04:03:16;99858.34;;;7.68;100.00
76378;BME280;65200;49.500;8.654;2023-04-25T04:05:43;99861.56;;;7.64;100.00
76378;BME280;65200;49.500;8.654;2023-04-25T04:08:10;99862.75;;;7.61;100.00
76378;BME280;65200;49.500;8.654;2023-04-25T04:10:36;99858.25;;;7.62;100.00
76378;BME280;65200;49.500;8.654;2023-04-25T04:13:04;99864.22;;;7.64;100.00
76378;BME280;65200;49.500;8.654;2023-04-25T04:15:30;99865.22;;;7.63;100.00
76378;BME280;65200;49.500;8.654;2023-04-25T04:17:58;99866.06;;;7.63;100.00
76378;BME280;65200;49.500;8.654;2023-04-25T04:20:28;99871.03;;;7.66;100.00
76378;BME280;65200;49.500;8.654;2023-04-25T04:22:54;99871.03;;;7.66;100.00
76378;BME280;65200;49.500;8.654;2023-04-25T04:25:20;99867.09;;;7.62;99.63
76378;BME280;65200;49.500;8.654;2023-04-25T04:27:47;99870.47;;;7.56;100.00
76378;BME280;65200;49.500;8.654;2023-04-25T04:30:15;99871.59;;;7.62;100.00
76378;BME280;65200;49.500;8.654;2023-04-25T04:32:41;99876.53;;;7.65;100.00
76378;BME280;65200;49.500;8.654;2023-04-25T04:35:08;99875.47;;;7.59;100.00
76378;BME280;65200;49.500;8.654;2023-04-25T04:37:36;99879.13;;;7.58;100.00
76378;BME280;65200;49.500;8.654;2023-04-25T04:40:04;99879.31;;;7.57;100.00
76378;BME280;65200;49.500;8.654;2023-04-25T04:42:30;99878.84;;;7.68;100.00
76378;BME280;65200;49.500;8.654;2023-04-25T04:44:57;99880.63;;;7.75;100.00
76378;BME280;65200;49.500;8.654;2023-04-25T04:47:25;99876.91;;;7.76;100.00
76378;BME280;65200;49.500;8.654;2023-04-25T04:49:56;99891.84;;;7.85;100.00
76378;BME280;65200;49.500;8.654;2023-04-25T04:52:22;99878.56;;;7.77;99.88
76378;BME280;65200;49.500;8.654;2023-04-25T04:54:49;99891.66;;;7.72;99.92
76378;BME280;65200;49.500;8.654;2023-04-25T04:57:15;99888.34;;;7.70;99.57
76378;BME280;65200;49.500;8.654;2023-04-25T04:59:42;99887.22;;;7.65;99.16
76378;BME280;65200;49.500;8.654;2023-04-25T05:02:09;99896.88;;;7.66;98.71
76378;BME280;65200;49.500;8.654;2023-04-25T05:04:36;99904.41;;;7.62;99.47
76378;BME280;65200;49.500;8.654;2023-04-25T05:07:03;99900.06;;;7.61;99.12
76378;BME280;65200;49.500;8.654;2023-04-25T05:09:29;99903.13;;;7.58;100.00
76378;BME280;65200;49.500;8.654;2023-04-25T05:11:56;99906.25;;;7.62;99.77
76378;BME280;65200;49.500;8.654;2023-04-25T05:14:22;99919.03;;;7.66;98.61
76378;BME280;65200;49.500;8.654;2023-04-25T05:16:48;99907.75;;;7.64;98.91
76378;BME280;65200;49.500;8.654;2023-04-25T05:19:15;99916.38;;;7.66;99.95
76378;BME280;65200;49.500;8.654;2023-04-25T05:21:43;99909.84;;;7.69;99.96
76378;BME280;65200;49.500;8.654;2023-04-25T05:24:10;99914.16;;;7.70;98.80
76378;BME280;65200;49.500;8.654;2023-04-25T05:26:37;99916.66;;;7.71;98.41
76378;BME280;65200;49.500;8.654;2023-04-25T05:29:03;99915.66;;;7.72;98.58
76378;BME280;65200;49.500;8.654;2023-04-25T05:31:30;99910.94;;;7.74;98.06
76378;BME280;65200;49.500;8.654;2023-04-25T05:33:57;99908.19;;;7.82;99.10
76378;BME280;65200;49.500;8.654;2023-04-25T05:36:23;99918.69;;;7.98;99.07
76378;BME280;65200;49.500;8.654;2023-04-25T05:38:51;99915.19;;;8.12;99.73
76378;BME280;65200;49.500;8.654;2023-04-25T05:41:17;99914.91;;;8.07;97.77
76378;BME280;65200;49.500;8.654;2023-04-25T05:43:44;99918.13;;;8.17;98.16
76378;BME280;65200;49.500;8.654;2023-04-25T05:46:13;99915.66;;;8.16;98.72
76378;BME280;65200;49.500;8.654;2023-04-25T05:48:40;99921.00;;;8.16;96.16
76378;BME280;65200;49.500;8.654;2023-04-25T05:51:07;99912.63;;;8.04;96.23
76378;BME280;65200;49.500;8.654;2023-04-25T05:53:33;99919.22;;;8.08;96.85
76378;BME280;65200;49.500;8.654;2023-04-25T05:56:01;99920.34;;;8.28;98.00
76378;BME280;65200;49.500;8.654;2023-04-25T05:58:28;99923.38;;;8.40;97.22
76378;BME280;65200;49.500;8.654;2023-04-25T06:00:54;99930.53;;;8.40;97.21
76378;BME280;65200;49.500;8.654;2023-04-25T06:03:21;99926.13;;;8.47;96.86
76378;BME280;65200;49.500;8.654;2023-04-25T06:05:47;99929.66;;;8.32;96.49
76378;BME280;65200;49.500;8.654;2023-04-25T06:08:14;99928.38;;;8.28;96.07
76378;BME280;65200;49.500;8.654;2023-04-25T06:10:40;99931.59;;;8.24;98.11
76378;BME280;65200;49.500;8.654;2023-04-25T06:13:08;99929.28;;;8.36;98.14
76378;BME280;65200;49.500;8.654;2023-04-25T06:15:34;99931.47;;;8.17;97.36
76378;BME280;65200;49.500;8.654;2023-04-25T06:18:01;99935.13;;;8.16;98.10
76378;BME280;65200;49.500;8.654;2023-04-25T06:20:27;99929.19;;;8.29;96.15
76378;BME280;65200;49.500;8.654;2023-04-25T06:22:54;99941.34;;;8.31;97.30
76378;BME280;65200;49.500;8.654;2023-04-25T06:25:20;99935.16;;;8.31;99.14
76378;BME280;65200;49.500;8.654;2023-04-25T06:27:47;99944.47;;;8.35;95.66
76378;BME280;65200;49.500;8.654;2023-04-25T06:30:15;99939.94;;;8.21;96.61
76378;BME280;65200;49.500;8.654;2023-04-25T06:32:43;99943.72;;;8.26;97.02
76378;BME280;65200;49.500;8.654;2023-04-25T06:35:09;99948.06;;;8.27;96.66
76378;BME280;65200;49.500;8.654;2023-04-25T06:37:36;99945.81;;;8.16;96.30
76378;BME280;65200;49.500;8.654;2023-04-25T06:40:03;99953.81;;;8.02;95.05
76378;BME280;65200;49.500;8.654;2023-04-25T06:42:30;99946.84;;;7.86;94.45
76378;BME280;65200;49.500;8.654;2023-04-25T06:44:56;99952.44;;;7.77;94.51
76378;BME280;65200;49.500;8.654;2023-04-25T06:47:24;99956.09;;;7.76;93.54
76378;BME280;65200;49.500;8.654;2023-04-25T06:49:50;99953.63;;;7.74;94.99
76378;BME280;65200;49.500;8.654;2023-04-25T06:52:17;99966.88;;;7.82;90.99
76378;BME280;65200;49.500;8.654;2023-04-25T06:54:44;99965.00;;;7.54;91.30
76378;BME280;65200;49.500;8.654;2023-04-25T06:57:10;99966.47;;;7.56;89.65
76378;BME280;65200;49.500;8.654;2023-04-25T06:59:36;99960.06;;;7.65;87.87
76378;BME280;65200;49.500;8.654;2023-04-25T07:02:03;99963.16;;;7.54;90.22
76378;BME280;65200;49.500;8.654;2023-04-25T07:04:32;99969.34;;;7.69;88.25
76378;BME280;65200;49.500;8.654;2023-04-25T07:06:58;99972.09;;;7.76;88.47
76378;BME280;65200;49.500;8.654;2023-04-25T07:09:26;99972.94;;;7.76;88.70
76378;BME280;65200;49.500;8.654;2023-04-25T07:11:52;99967.69;;;7.68;88.18
76378;BME280;65200;49.500;8.654;2023-04-25T07:14:18;99971.38;;;7.67;87.55
76378;BME280;65200;49.500;8.654;2023-04-25T07:16:45;99974.78;;;7.90;90.07
76378;BME280;65200;49.500;8.654;2023-04-25T07:19:11;99975.06;;;7.95;90.83
76378;BME280;65200;49.500;8.654;2023-04-25T07:21:39;99970.03;;;8.00;89.34
76378;BME280;65200;49.500;8.654;2023-04-25T07:24:06;99968.66;;;8.04;89.42
76378;BME280;65200;49.500;8.654;2023-04-25T07:26:32;99975.47;;;8.21;88.65
76378;BME280;65200;49.500;8.654;2023-04-25T07:28:59;99977.66;;;8.18;90.16
76378;BME280;65200;49.500;8.654;2023-04-25T07:31:26;99976.13;;;8.23;87.55
76378;BME280;65200;49.500;8.654;2023-04-25T07:33:53;99981.47;;;8.23;84.32
76378;BME280;65200;49.500;8.654;2023-04-25T07:36:19;99976.28;;;8.22;86.04
76378;BME280;65200;49.500;8.654;2023-04-25T07:38:48;99982.84;;;8.19;83.57
76378;BME280;65200;49.500;8.654;2023-04-25T07:41:14;99989.53;;;8.15;81.54
76378;BME280;65200;49.500;8.654;2023-04-25T07:43:40;99986.22;;;8.13;82.79
76378;BME280;65200;49.500;8.654;2023-04-25T07:46:07;99997.50;;;8.23;85.66
76378;BME280;65200;49.500;8.654;2023-04-25T07:48:33;99994.91;;;8.30;83.51
76378;BME280;65200;49.500;8.654;2023-04-25T07:51:00;100004.81;;;8.21;81.59
76378;BME280;65200;49.500;8.654;2023-04-25T07:53:26;100016.25;;;8.15;82.33
76378;BME280;65200;49.500;8.654;2023-04-25T07:55:54;100007.56;;;8.13;81.63
76378;BME280;65200;49.500;8.654;2023-04-25T07:58:20;100012.75;;;8.29;84.35
76378;BME280;65200;49.500;8.654;2023-04-25T08:00:47;100010.66;;;8.40;84.33
76378;BME280;65200;49.500;8.654;2023-04-25T08:03:14;100016.66;;;8.27;82.09
76378;BME280;65200;49.500;8.654;2023-04-25T08:05:40;100009.19;;;8.37;83.40
76378;BME280;65200;49.500;8.654;2023-04-25T08:08:06;100014.78;;;8.71;84.61
76378;BME280;65200;49.500;8.654;2023-04-25T08:10:33;100023.88;;;9.12;83.39
76378;BME280;65200;49.500;8.654;2023-04-25T08:13:01;100030.84;;;9.28;80.47
76378;BME280;65200;49.500;8.654;2023-04-25T08:15:27;100040.75;;;9.13;78.60
76378;BME280;65200;49.500;8.654;2023-04-25T08:17:54;100047.28;;;9.25;81.82
76378;BME280;65200;49.500;8.654;2023-04-25T08:20:21;100059.50;;;9.55;75.24
76378;BME280;65200;49.500;8.654;2023-04-25T08:22:47;100053.16;;;9.35;75.20
76378;BME280;65200;49.500;8.654;2023-04-25T08:25:14;100049.97;;;9.67;79.75
76378;BME280;65200;49.500;8.654;2023-04-25T08:27:40;100054.28;;;9.89;76.88
76378;BME280;65200;49.500;8.654;2023-04-25T08:30:09;100053.72;;;10.00;78.71
76378;BME280;65200;49.500;8.654;2023-04-25T08:32:35;100065.75;;;10.32;74.70
76378;BME280;65200;49.500;8.654;2023-04-25T08:35:03;100069.38;;;9.97;71.79
76378;BME280;65200;49.500;8.654;2023-04-25T08:37:30;100072.03;;;9.69;69.56
76378;BME280;65200;49.500;8.654;2023-04-25T08:39:57;100073.00;;;9.47;75.09
76378;BME280;65200;49.500;8.654;2023-04-25T08:42:24;100077.84;;;9.58;74.11
76378;BME280;65200;49.500;8.654;2023-04-25T08:44:53;100080.16;;;9.40;72.81
76378;BME280;65200;49.500;8.654;2023-04-25T08:47:23;100069.13;;;9.28;76.46
76378;BME280;65200;49.500;8.654;2023-04-25T08:49:52;100070.66;;;9.37;75.97
76378;BME280;65200;49.500;8.654;2023-04-25T08:52:21;100088.47;;;9.30;73.77
76378;BME280;65200;49.500;8.654;2023-04-25T08:54:48;100097.84;;;9.41;71.14
76378;BME280;65200;49.500;8.654;2023-04-25T08:57:17;100098.25;;;9.59;72.80
76378;BME280;65200;49.500;8.654;2023-04-25T08:59:44;100088.75;;;9.77;73.58
76378;BME280;65200;49.500;8.654;2023-04-25T09:02:11;100095.50;;;10.16;72.39
76378;BME280;65200;49.500;8.654;2023-04-25T09:04:42;100095.00;;;10.61;69.46
76378;BME280;65200;49.500;8.654;2023-04-25T09:07:09;100096.56;;;11.17;68.23
76378;BME280;65200;49.500;8.654;2023-04-25T09:09:35;100104.78;;;11.09;68.29
76378;BME280;65200;49.500;8.654;2023-04-25T09:12:02;100098.97;;;11.05;66.93
76378;BME280;65200;49.500;8.654;2023-04-25T09:14:28;100105.44;;;11.31;70.65
76378;BME280;65200;49.500;8.654;2023-04-25T09:16:59;100121.16;;;11.34;67.43
76378;BME280;65200;49.500;8.654;2023-04-25T09:19:28;100108.91;;;11.18;68.91
76378;BME280;65200;49.500;8.654;2023-04-25T09:21:56;100120.88;;;11.22;68.16
76378;BME280;65200;49.500;8.654;2023-04-25T09:24:34;100124.19;;;11.18;67.38
76378;BME280;65200;49.500;8.654;2023-04-25T09:27:03;100129.59;;;10.90;70.90
76378;BME280;65200;49.500;8.654;2023-04-25T09:29:30;100126.16;;;10.96;65.45
76378;BME280;65200;49.500;8.654;2023-04-25T09:32:15;100134.84;;;11.04;66.34
76378;BME280;65200;49.500;8.654;2023-04-25T09:34:43;100121.97;;;10.87;67.41
76378;BME280;65200;49.500;8.654;2023-04-25T09:37:17;100136.03;;;10.61;66.59
76378;BME280;65200;49.500;8.654;2023-04-25T09:39:44;100148.81;;;10.59;65.00
76378;BME280;65200;49.500;8.654;2023-04-25T09:42:11;100151.44;;;10.53;67.82
76378;BME280;65200;49.500;8.654;2023-04-25T09:44:42;100146.34;;;10.92;67.63
76378;BME280;65200;49.500;8.654;2023-04-25T09:47:09;100141.78;;;11.27;64.85
76378;BME280;65200;49.500;8.654;2023-04-25T09:49:39;100148.91;;;11.13;64.97
76378;BME280;65200;49.500;8.654;2023-04-25T09:52:06;100154.22;;;11.00;67.74
76378;BME280;65200;49.500;8.654;2023-04-25T09:54:34;100159.50;;;10.87;66.64
76378;BME280;65200;49.500;8.654;2023-04-25T09:57:07;100171.50;;;10.91;66.36
76378;BME280;65200;49.500;8.654;2023-04-25T09:59:38;100170.75;;;11.03;66.76
76378;BME280;65200;49.500;8.654;2023-04-25T10:02:06;100174.56;;;11.29;62.92
76378;BME280;65200;49.500;8.654;2023-04-25T10:04:34;100176.47;;;11.35;67.85
76378;BME280;65200;49.500;8.654;2023-04-25T10:07:01;100170.41;;;11.20;65.43
76378;BME280;65200;49.500;8.654;2023-04-25T10:09:29;100165.00;;;11.13;64.00
76378;BME280;65200;49.500;8.654;2023-04-25T10:12:00;100173.44;;;11.51;64.63
76378;BME280;65200;49.500;8.654;2023-04-25T10:14:27;100180.16;;;11.34;67.32
76378;BME280;65200;49.500;8.654;2023-04-25T10:16:55;100178.59;;;11.05;66.87
76378;BME280;65200;49.500;8.654;2023-04-25T10:19:23;100176.25;;;11.30;68.37
76378;BME280;65200;49.500;8.654;2023-04-25T10:21:52;100168.78;;;11.66;63.62
76378;BME280;65200;49.500;8.654;2023-04-25T10:24:19;100184.75;;;11.87;66.22
76378;BME280;65200;49.500;8.654;2023-04-25T10:26:46;100181.53;;;12.37;66.36
76378;BME280;65200;49.500;8.654;2023-04-25T10:29:21;100172.38;;;12.05;65.37
76378;BME280;65200;49.500;8.654;2023-04-25T10:31:48;100179.81;;;12.16;66.47
76378;BME280;65200;49.500;8.654;2023-04-25T10:34:15;100172.19;;;12.66;59.45
76378;BME280;65200;49.500;8.654;2023-04-25T10:36:42;100166.19;;;12.77;62.77
76378;BME280;65200;49.500;8.654;2023-04-25T10:39:08;100172.16;;;12.07;65.88
76378;BME280;65200;49.500;8.654;2023-04-25T10:41:52;100167.94;;;11.18;66.67
76378;BME280;65200;49.500;8.654;2023-04-25T10:44:21;100174.50;;;10.81;69.70
76378;BME280;65200;49.500;8.654;2023-04-25T10:46:47;100180.38;;;10.64;68.35
76378;BME280;65200;49.500;8.654;2023-04-25T10:49:29;100171.09;;;10.94;69.57
76378;BME280;65200;49.500;8.654;2023-04-25T10:52:11;100182.75;;;11.14;69.37
76378;BME280;65200;49.500;8.654;2023-04-25T10:54:40;100192.97;;;11.32;68.30
76378;BME280;65200;49.500;8.654;2023-04-25T10:57:07;100186.78;;;11.31;63.81
76378;BME280;65200;49.500;8.654;2023-04-25T10:59:35;100184.38;;;11.49;63.86
76378;BME280;65200;49.500;8.654;2023-04-25T11:02:11;100200.53;;;11.15;63.03
76378;BME280;65200;49.500;8.654;2023-04-25T11:04:37;100191.91;;;11.26;63.52
76378;BME280;65200;49.500;8.654;2023-04-25T11:07:23;100191.72;;;10.93;63.08
76378;BME280;65200;49.500;8.654;2023-04-25T11:09:52;100187.31;;;10.79;63.35
76378;BME280;65200;49.500;8.654;2023-04-25T11:12:19;100195.59;;;10.57;62.78
76378;BME280;65200;49.500;8.654;2023-04-25T11:14:47;100194.75;;;10.56;67.67
76378;BME280;65200;49.500;8.654;2023-04-25T11:17:13;100194.09;;;10.54;64.33
76378;BME280;65200;49.500;8.654;2023-04-25T11:19:40;100193.06;;;10.49;67.72
76378;BME280;65200;49.500;8.654;2023-04-25T11:22:06;100200.78;;;10.37;67.02
76378;BME280;65200;49.500;8.654;2023-04-25T11:24:35;100207.78;;;10.38;65.89
76378;BME280;65200;49.500;8.654;2023-04-25T11:27:02;100208.31;;;10.27;67.75
76378;BME280;65200;49.500;8.654;2023-04-25T11:29:30;100201.78;;;10.15;65.39
76378;BME280;65200;49.500;8.654;2023-04-25T11:31:59;100211.31;;;10.18;67.64
76378;BME280;65200;49.500;8.654;2023-04-25T11:34:26;100208.66;;;10.03;66.74
76378;BME280;65200;49.500;8.654;2023-04-25T11:36:55;100207.16;;;10.01;67.75
76378;BME280;65200;49.500;8.654;2023-04-25T11:39:24;100217.94;;;10.22;65.41
76378;BME280;65200;49.500;8.654;2023-04-25T11:41:51;100216.91;;;10.23;65.04
76378;BME280;65200;49.500;8.654;2023-04-25T11:44:18;100221.03;;;10.46;65.37
76378;BME280;65200;49.500;8.654;2023-04-25T11:46:46;100217.31;;;10.68;65.97
76378;BME280;65200;49.500;8.654;2023-04-25T11:49:14;100223.66;;;10.88;63.93
76378;BME280;65200;49.500;8.654;2023-04-25T11:51:41;100222.47;;;11.25;64.84
76378;BME280;65200;49.500;8.654;2023-04-25T11:54:08;100217.16;;;11.38;63.02
76378;BME280;65200;49.500;8.654;2023-04-25T11:56:35;100226.19;;;11.31;60.61
76378;BME280;65200;49.500;8.654;2023-04-25T11:59:02;100227.75;;;12.00;62.84
76378;BME280;65200;49.500;8.654;2023-04-25T12:01:30;100226.59;;;12.48;59.87
76378;BME280;65200;49.500;8.654;2023-04-25T12:03:58;100233.09;;;11.87;61.39
76378;BME280;65200;49.500;8.654;2023-04-25T12:06:28;100237.22;;;11.15;62.81
76378;BME280;65200;49.500;8.654;2023-04-25T12:08:59;100235.25;;;10.95;61.71
76378;BME280;65200;49.500;8.654;2023-04-25T12:11:26;100233.69;;;10.80;68.99
76378;BME280;65200;49.500;8.654;2023-04-25T12:13:53;100247.56;;;10.62;64.33
76378;BME280;65200;49.500;8.654;2023-04-25T12:16:20;100240.19;;;10.43;65.97
76378;BME280;65200;49.500;8.654;2023-04-25T12:18:46;100238.03;;;10.32;66.80
76378;BME280;65200;49.500;8.654;2023-04-25T12:21:12;100242.75;;;10.30;65.30
76378;BME280;65200;49.500;8.654;2023-04-25T12:23:40;100237.06;;;10.40;65.70
76378;BME280;65200;49.500;8.654;2023-04-25T12:26:07;100235.50;;;10.73;64.41
76378;BME280;65200;49.500;8.654;2023-04-25T12:28:33;100235.94;;;11.04;66.27
76378;BME280;65200;49.500;8.654;2023-04-25T12:31:02;100243.59;;;11.07;66.57
76378;BME280;65200;49.500;8.654;2023-04-25T12:33:30;100248.59;;;11.17;64.53
76378;BME280;65200;49.500;8.654;2023-04-25T12:35:57;100251.75;;;11.27;63.57
76378;BME280;65200;49.500;8.654;2023-04-25T12:38:25;100240.75;;;11.49;63.45
76378;BME280;65200;49.500;8.654;2023-04-25T12:40:53;100245.31;;;12.02;66.14
76378;BME280;65200;49.500;8.654;2023-04-25T12:43:19;100243.28;;;12.17;64.60
76378;BME280;65200;49.500;8.654;2023-04-25T12:45:48;100240.00;;;12.22;64.62
76378;BME280;65200;49.500;8.654;2023-04-25T12:48:15;100243.56;;;12.75;59.25
76378;BME280;65200;49.500;8.654;2023-04-25T12:50:41;100248.06;;;12.28;63.23
76378;BME280;65200;49.500;8.654;2023-04-25T12:53:08;100247.53;;;11.86;61.76
76378;BME280;65200;49.500;8.654;2023-04-25T12:55:34;100253.59;;;11.60;61.94
76378;BME280;65200;49.500;8.654;2023-04-25T12:58:02;100263.97;;;11.70;62.40
76378;BME280;65200;49.500;8.654;2023-04-25T13:00:29;100267.16;;;11.86;61.99
76378;BME280;65200;49.500;8.654;2023-04-25T13:02:56;100254.59;;;11.93;57.80